sensor_id;sensor_type;location;lat;lon;timestamp;P1;durP1;ratioP1;P2;durP2;ratioP2
28180;SDS011;15464;50.988;10.318;2023-05-07T16:06:56;9.95;;;9.07;;
28180;SDS011;15464;50.988;10.318;2023-05-07T16:09:23;8.63;;;7.82;;
28180;SDS011;15464;50.988;10.318;2023-05-07T16:11:51;8.57;;;7.60;;
28180;SDS011;15464;50.988;10.318;2023-05-07T16:14:18;8.95;;;7.85;;
28180;SDS011;15464;50.988;10.318;2023-05-07T16:16:44;8.43;;;7.72;;
28180;SDS011;15464;50.988;10.318;2023-05-07T16:19:11;9.48;;;8.68;;
28180;SDS011;15464;50.988;10.318;2023-05-07T16:21:38;9.65;;;8.27;;
28180;SDS011;15464;50.988;10.318;2023-05-07T16:24:06;9.40;;;8.60;;
28180;SDS011;15464;50.988;10.318;2023-05-07T16:26:33;9.95;;;9.15;;
28180;SDS011;15464;50.988;10.318;2023-05-07T16:29:00;9.70;;;8.80;;
28180;SDS011;15464;50.988;10.318;2023-05-07T16:31:27;8.90;;;8.10;;
28180;SDS011;15464;50.988;10.318;2023-05-07T16:33:54;9.30;;;8.55;;
28180;SDS011;15464;50.988;10.318;2023-05-07T16:36:21;9.30;;;8.50;;
28180;SDS011;15464;50.988;10.318;2023-05-07T16:38:48;8.90;;;8.13;;
28180;SDS011;15464;50.988;10.318;2023-05-07T16:41:15;9.20;;;8.40;;
28180;SDS011;15464;50.988;10.318;2023-05-07T16:43:42;8.68;;;7.88;;
28180;SDS011;15464;50.988;10.318;2023-05-07T16:46:09;8.10;;;7.40;;
28180;SDS011;15464;50.988;10.318;2023-05-07T16:48:36;8.43;;;7.70;;
28180;SDS011;15464;50.988;10.318;2023-05-07T16:51:03;7.65;;;6.95;;
28180;SDS011;15464;50.988;10.318;2023-05-07T16:53:30;7.35;;;6.68;;
28180;SDS011;15464;50.988;10.318;2023-05-07T16:55:57;8.25;;;7.30;;
28180;SDS011;15464;50.988;10.318;2023-05-07T16:58:25;9.32;;;8.52;;
28180;SDS011;15464;50.988;10.318;2023-05-07T17:00:53;9.17;;;8.37;;
28180;SDS011;15464;50.988;10.318;2023-05-07T17:03:20;8.45;;;7.68;;
28180;SDS011;15464;50.988;10.318;2023-05-07T17:05:47;9.07;;;8.32;;
28180;SDS011;15464;50.988;10.318;2023-05-07T17:08:17;8.10;;;7.47;;
28180;SDS011;15464;50.988;10.318;2023-05-07T17:10:53;7.25;;;6.65;;
28180;SDS011;15464;50.988;10.318;2023-05-07T17:13:37;9.60;;;7.82;;
28180;SDS011;15464;50.988;10.318;2023-05-07T17:16:04;8.25;;;7.45;;
28180;SDS011;15464;50.988;10.318;2023-05-07T17:18:32;7.28;;;6.68;;
28180;SDS011;15464;50.988;10.318;2023-05-07T17:20:59;7.75;;;7.05;;
28180;SDS011;15464;50.988;10.318;2023-05-07T17:23:26;7.28;;;6.68;;
28180;SDS011;15464;50.988;10.318;2023-05-07T17:25:53;7.93;;;7.32;;
28180;SDS011;15464;50.988;10.318;2023-05-07T17:28:20;8.57;;;7.50;;
28180;SDS011;15464;50.988;10.318;2023-05-07T17:30:47;10.60;;;9.50;;
28180;SDS011;15464;50.988;10.318;2023-05-07T17:33:14;10.32;;;9.23;;
28180;SDS011;15464;50.988;10.318;2023-05-07T17:35:47;11.18;;;9.93;;
28180;SDS011;15464;50.988;10.318;2023-05-07T17:38:14;15.27;;;11.45;;
28180;SDS011;15464;50.988;10.318;2023-05-07T17:40:41;12.38;;;9.82;;
28180;SDS011;15464;50.988;10.318;2023-05-07T17:43:08;9.20;;;8.40;;
28180;SDS011;15464;50.988;10.318;2023-05-07T17:45:36;9.85;;;8.95;;
28180;SDS011;15464;50.988;10.318;2023-05-07T17:48:03;9.93;;;9.10;;
28180;SDS011;15464;50.988;10.318;2023-05-07T17:50:31;9.23;;;8.43;;
28180;SDS011;15464;50.988;10.318;2023-05-07T17:52:58;10.02;;;8.98;;
28180;SDS011;15464;50.988;10.318;2023-05-07T17:55:25;9.32;;;8.55;;
28180;SDS011;15464;50.988;10.318;2023-05-07T17:57:52;10.10;;;9.10;;
28180;SDS011;15464;50.988;10.318;2023-05-07T18:00:18;11.93;;;10.73;;
28180;SDS011;15464;50.988;10.318;2023-05-07T18:02:45;9.02;;;8.23;;
28180;SDS011;15464;50.988;10.318;2023-05-07T18:05:12;9.43;;;8.48;;
28180;SDS011;15464;50.988;10.318;2023-05-07T18:07:39;9.77;;;8.88;;
28180;SDS011;15464;50.988;10.318;2023-05-07T18:10:06;14.48;;;13.07;;
28180;SDS011;15464;50.988;10.318;2023-05-07T18:12:33;10.13;;;8.80;;
28180;SDS011;15464;50.988;10.318;2023-05-07T18:14:59;9.13;;;8.23;;
28180;SDS011;15464;50.988;10.318;2023-05-07T18:17:26;8.90;;;8.18;;
28180;SDS011;15464;50.988;10.318;2023-05-07T18:19:53;9.13;;;8.32;;
28180;SDS011;15464;50.988;10.318;2023-05-07T18:22:20;9.02;;;8.23;;
28180;SDS011;15464;50.988;10.318;2023-05-07T18:24:47;9.23;;;8.38;;
28180;SDS011;15464;50.988;10.318;2023-05-07T18:27:15;8.73;;;7.93;;
28180;SDS011;15464;50.988;10.318;2023-05-07T18:29:42;9.30;;;8.45;;
28180;SDS011;15464;50.988;10.318;2023-05-07T18:32:08;9.10;;;8.30;;
28180;SDS011;15464;50.988;10.318;2023-05-07T18:34:35;9.55;;;8.65;;
28180;SDS011;15464;50.988;10.318;2023-05-07T18:37:02;9.32;;;8.52;;
28180;SDS011;15464;50.988;10.318;2023-05-07T18:39:29;9.57;;;8.68;;
28180;SDS011;15464;50.988;10.318;2023-05-07T18:41:57;10.00;;;9.10;;
28180;SDS011;15464;50.988;10.318;2023-05-07T18:44:24;10.23;;;9.25;;
28180;SDS011;15464;50.988;10.318;2023-05-07T18:46:50;11.00;;;9.90;;
28180;SDS011;15464;50.988;10.318;2023-05-07T18:49:17;10.88;;;9.75;;
28180;SDS011;15464;50.988;10.318;2023-05-07T18:51:44;10.30;;;9.10;;
28180;SDS011;15464;50.988;10.318;2023-05-07T18:54:10;11.30;;;10.30;;
28180;SDS011;15464;50.988;10.318;2023-05-07T18:56:37;10.55;;;9.55;;
28180;SDS011;15464;50.988;10.318;2023-05-07T18:59:04;10.57;;;9.57;;
28180;SDS011;15464;50.988;10.318;2023-05-07T19:01:31;11.52;;;10.43;;
28180;SDS011;15464;50.988;10.318;2023-05-07T19:03:57;11.48;;;10.40;;
28180;SDS011;15464;50.988;10.318;2023-05-07T19:06:24;12.00;;;10.88;;
28180;SDS011;15464;50.988;10.318;2023-05-07T19:08:51;12.77;;;11.57;;
28180;SDS011;15464;50.988;10.318;2023-05-07T19:11:18;11.30;;;10.07;;
28180;SDS011;15464;50.988;10.318;2023-05-07T19:13:44;11.23;;;10.23;;
28180;SDS011;15464;50.988;10.318;2023-05-07T19:16:11;11.93;;;10.82;;
28180;SDS011;15464;50.988;10.318;2023-05-07T19:18:39;12.40;;;11.27;;
28180;SDS011;15464;50.988;10.318;2023-05-07T19:21:06;11.38;;;10.38;;
28180;SDS011;15464;50.988;10.318;2023-05-07T19:23:33;11.20;;;10.10;;
28180;SDS011;15464;50.988;10.318;2023-05-07T19:26:07;10.75;;;9.65;;
28180;SDS011;15464;50.988;10.318;2023-05-07T19:28:37;10.60;;;9.63;;
28180;SDS011;15464;50.988;10.318;2023-05-07T19:31:20;10.82;;;9.70;;
28180;SDS011;15464;50.988;10.318;2023-05-07T19:33:48;10.50;;;9.50;;
28180;SDS011;15464;50.988;10.318;2023-05-07T19:36:15;10.10;;;9.05;;
28180;SDS011;15464;50.988;10.318;2023-05-07T19:38:42;10.32;;;9.43;;
28180;SDS011;15464;50.988;10.318;2023-05-07T19:41:10;10.18;;;9.23;;
28180;SDS011;15464;50.988;10.318;2023-05-07T19:46:06;10.48;;;9.38;;
28180;SDS011;15464;50.988;10.318;2023-05-07T19:48:33;10.00;;;9.00;;
28180;SDS011;15464;50.988;10.318;2023-05-07T19:51:00;11.30;;;9.88;;
28180;SDS011;15464;50.988;10.318;2023-05-07T19:53:27;9.75;;;8.80;;
28180;SDS011;15464;50.988;10.318;2023-05-07T19:56:00;9.93;;;9.02;;
28180;SDS011;15464;50.988;10.318;2023-05-07T19:58:32;10.45;;;9.25;;
28180;SDS011;15464;50.988;10.318;2023-05-07T20:00:59;9.52;;;8.52;;
28180;SDS011;15464;50.988;10.318;2023-05-07T20:03:27;9.95;;;8.95;;
28180;SDS011;15464;50.988;10.318;2023-05-07T20:05:54;10.95;;;9.23;;
28180;SDS011;15464;50.988;10.318;2023-05-07T20:08:21;10.13;;;9.13;;
28180;SDS011;15464;50.988;10.318;2023-05-07T20:10:48;9.15;;;8.32;;
28180;SDS011;15464;50.988;10.318;2023-05-07T20:13:16;9.60;;;8.70;;
28180;SDS011;15464;50.988;10.318;2023-05-07T20:15:44;8.88;;;7.97;;
28180;SDS011;15464;50.988;10.318;2023-05-07T20:18:11;9.27;;;8.48;;
28180;SDS011;15464;50.988;10.318;2023-05-07T20:20:40;9.13;;;8.32;;
28180;SDS011;15464;50.988;10.318;2023-05-07T20:23:07;10.10;;;9.15;;
28180;SDS011;15464;50.988;10.318;2023-05-07T20:25:34;10.45;;;9.45;;
28180;SDS011;15464;50.988;10.318;2023-05-07T20:28:01;10.27;;;9.38;;
28180;SDS011;15464;50.988;10.318;2023-05-07T20:30:28;9.20;;;8.30;;
28180;SDS011;15464;50.988;10.318;2023-05-07T20:32:54;9.57;;;8.68;;
28180;SDS011;15464;50.988;10.318;2023-05-07T20:35:21;9.55;;;8.65;;
28180;SDS011;15464;50.988;10.318;2023-05-07T20:37:48;9.93;;;9.02;;
28180;SDS011;15464;50.988;10.318;2023-05-07T20:40:15;10.20;;;9.30;;
28180;SDS011;15464;50.988;10.318;2023-05-07T20:42:42;9.32;;;8.52;;
28180;SDS011;15464;50.988;10.318;2023-05-07T20:45:09;9.60;;;8.65;;
28180;SDS011;15464;50.988;10.318;2023-05-07T20:47:36;9.45;;;8.57;;
28180;SDS011;15464;50.988;10.318;2023-05-07T20:50:03;8.18;;;7.38;;
28180;SDS011;15464;50.988;10.318;2023-05-07T20:52:30;9.82;;;8.82;;
28180;SDS011;15464;50.988;10.318;2023-05-07T20:54:56;9.65;;;8.77;;
28180;SDS011;15464;50.988;10.318;2023-05-07T20:57:23;8.95;;;8.13;;
28180;SDS011;15464;50.988;10.318;2023-05-07T20:59:51;9.60;;;8.43;;
28180;SDS011;15464;50.988;10.318;2023-05-07T21:02:17;8.68;;;7.97;;
28180;SDS011;15464;50.988;10.318;2023-05-07T21:04:44;8.43;;;7.72;;
28180;SDS011;15464;50.988;10.318;2023-05-07T21:07:11;8.57;;;7.85;;
28180;SDS011;15464;50.988;10.318;2023-05-07T21:09:38;10.85;;;7.47;;
28180;SDS011;15464;50.988;10.318;2023-05-07T21:12:04;9.55;;;8.70;;
28180;SDS011;15464;50.988;10.318;2023-05-07T21:14:31;9.85;;;8.95;;
28180;SDS011;15464;50.988;10.318;2023-05-07T21:16:58;9.57;;;8.48;;
28180;SDS011;15464;50.988;10.318;2023-05-07T21:19:25;9.52;;;8.48;;
28180;SDS011;15464;50.988;10.318;2023-05-07T21:21:52;9.50;;;8.63;;
28180;SDS011;15464;50.988;10.318;2023-05-07T21:24:23;10.27;;;9.27;;
28180;SDS011;15464;50.988;10.318;2023-05-07T21:26:52;10.20;;;9.30;;
28180;SDS011;15464;50.988;10.318;2023-05-07T21:29:20;11.40;;;9.63;;
28180;SDS011;15464;50.988;10.318;2023-05-07T21:31:47;10.80;;;9.77;;
28180;SDS011;15464;50.988;10.318;2023-05-07T21:34:14;11.35;;;9.10;;
28180;SDS011;15464;50.988;10.318;2023-05-07T21:36:41;10.75;;;9.75;;
28180;SDS011;15464;50.988;10.318;2023-05-07T21:39:08;10.65;;;9.65;;
28180;SDS011;15464;50.988;10.318;2023-05-07T21:41:34;12.65;;;10.10;;
28180;SDS011;15464;50.988;10.318;2023-05-07T21:44:02;11.35;;;10.25;;
28180;SDS011;15464;50.988;10.318;2023-05-07T21:46:30;11.00;;;10.00;;
28180;SDS011;15464;50.988;10.318;2023-05-07T21:48:57;10.30;;;9.40;;
28180;SDS011;15464;50.988;10.318;2023-05-07T21:51:23;10.73;;;9.73;;
28180;SDS011;15464;50.988;10.318;2023-05-07T21:53:50;10.70;;;9.60;;
28180;SDS011;15464;50.988;10.318;2023-05-07T21:56:17;10.68;;;9.48;;
28180;SDS011;15464;50.988;10.318;2023-05-07T21:58:43;11.23;;;10.13;;
28180;SDS011;15464;50.988;10.318;2023-05-07T22:01:10;11.32;;;9.75;;
28180;SDS011;15464;50.988;10.318;2023-05-07T22:03:38;10.20;;;9.13;;
28180;SDS011;15464;50.988;10.318;2023-05-07T22:06:05;10.82;;;9.82;;
28180;SDS011;15464;50.988;10.318;2023-05-07T22:08:32;11.48;;;10.32;;
28180;SDS011;15464;50.988;10.318;2023-05-07T22:10:59;11.75;;;10.73;;
28180;SDS011;15464;50.988;10.318;2023-05-07T22:13:26;10.80;;;9.70;;
28180;SDS011;15464;50.988;10.318;2023-05-07T22:15:52;11.32;;;10.23;;
28180;SDS011;15464;50.988;10.318;2023-05-07T22:18:23;12.32;;;11.02;;
28180;SDS011;15464;50.988;10.318;2023-05-07T22:20:51;12.00;;;10.80;;
28180;SDS011;15464;50.988;10.318;2023-05-07T22:23:18;13.23;;;11.65;;
28180;SDS011;15464;50.988;10.318;2023-05-07T22:25:44;13.23;;;11.63;;
28180;SDS011;15464;50.988;10.318;2023-05-07T22:28:11;13.07;;;11.80;;
28180;SDS011;15464;50.988;10.318;2023-05-07T22:30:38;12.57;;;11.48;;
28180;SDS011;15464;50.988;10.318;2023-05-07T22:33:05;14.40;;;13.07;;
28180;SDS011;15464;50.988;10.318;2023-05-07T22:35:32;13.82;;;12.52;;
28180;SDS011;15464;50.988;10.318;2023-05-07T22:37:58;12.38;;;11.10;;
28180;SDS011;15464;50.988;10.318;2023-05-07T22:40:25;12.90;;;11.70;;
28180;SDS011;15464;50.988;10.318;2023-05-07T22:42:52;13.25;;;12.00;;
28180;SDS011;15464;50.988;10.318;2023-05-07T22:45:19;13.45;;;12.15;;
28180;SDS011;15464;50.988;10.318;2023-05-07T22:47:46;13.68;;;12.48;;
28180;SDS011;15464;50.988;10.318;2023-05-07T22:50:13;14.85;;;13.35;;
28180;SDS011;15464;50.988;10.318;2023-05-07T22:52:40;13.68;;;12.48;;
28180;SDS011;15464;50.988;10.318;2023-05-07T22:55:07;13.93;;;12.63;;
28180;SDS011;15464;50.988;10.318;2023-05-07T22:57:34;14.07;;;12.73;;
28180;SDS011;15464;50.988;10.318;2023-05-07T23:00:00;15.82;;;14.23;;
28180;SDS011;15464;50.988;10.318;2023-05-07T23:02:27;15.77;;;13.68;;
28180;SDS011;15464;50.988;10.318;2023-05-07T23:04:57;14.20;;;12.88;;
28180;SDS011;15464;50.988;10.318;2023-05-07T23:07:24;14.93;;;13.25;;
28180;SDS011;15464;50.988;10.318;2023-05-07T23:09:51;15.30;;;13.70;;
28180;SDS011;15464;50.988;10.318;2023-05-07T23:12:17;13.63;;;12.25;;
28180;SDS011;15464;50.988;10.318;2023-05-07T23:14:44;15.02;;;13.43;;
28180;SDS011;15464;50.988;10.318;2023-05-07T23:17:11;15.18;;;13.77;;
28180;SDS011;15464;50.988;10.318;2023-05-07T23:19:38;16.08;;;14.45;;
28180;SDS011;15464;50.988;10.318;2023-05-07T23:22:04;13.90;;;12.63;;
28180;SDS011;15464;50.988;10.318;2023-05-07T23:24:31;15.02;;;13.65;;
28180;SDS011;15464;50.988;10.318;2023-05-07T23:26:58;15.65;;;14.23;;
28180;SDS011;15464;50.988;10.318;2023-05-07T23:29:24;16.23;;;14.43;;
28180;SDS011;15464;50.988;10.318;2023-05-07T23:31:51;16.20;;;14.70;;
28180;SDS011;15464;50.988;10.318;2023-05-07T23:34:18;16.05;;;14.55;;
28180;SDS011;15464;50.988;10.318;2023-05-07T23:36:49;17.02;;;15.52;;
28180;SDS011;15464;50.988;10.318;2023-05-07T23:39:17;17.20;;;15.40;;
28180;SDS011;15464;50.988;10.318;2023-05-07T23:41:44;16.13;;;14.63;;
28180;SDS011;15464;50.988;10.318;2023-05-07T23:44:10;15.30;;;13.90;;
28180;SDS011;15464;50.988;10.318;2023-05-07T23:46:38;16.67;;;15.05;;
28180;SDS011;15464;50.988;10.318;2023-05-07T23:49:05;16.02;;;14.45;;
28180;SDS011;15464;50.988;10.318;2023-05-07T23:51:32;16.63;;;15.02;;
28180;SDS011;15464;50.988;10.318;2023-05-07T23:53:59;15.05;;;13.55;;
28180;SDS011;15464;50.988;10.318;2023-05-07T23:56:26;14.40;;;12.90;;
28180;SDS011;15464;50.988;10.318;2023-05-07T23:58:52;16.27;;;14.68;;
